首页
METAR-TAF:

METAR-TAF

机场 :

赫拉特国际机场

赫拉特, 阿富汗

纬度: 34-13N, 经度: 062-13E, 海拔: 964米

当前天气观测

该预报发布于35分钟前的08:55 UTC
风速12节,风向东北,有时为24节阵风
温度 34°C
湿度 10%
气压 1012 hPa
能见度10公里或以上
1500米以下无云,无积雨云

METAR: OAHR 180855Z 04012G24KT CAVOK 34/M02 Q1012 RMK A2991 BLU

时间: 14:00 (09:30 UTC)

预报

该预报发布于4小时和30分钟前的05:00 UTC
预报有效从18日的 06点(UTC)到 19日的 06点(UTC)
风速8节,风向东北
能见度10公里或以上
1500米以下无云,无积雨云
成为
从 18日的 06点(UTC)到 18日的 08点(UTC)
风速18节,风向东北,有时为30节阵风
成为
从 18日的 17点(UTC)到 18日的 19点(UTC)
风速10节,风向东北
成为
从 18日的 20点(UTC)到 18日的 22点(UTC)
风速3节,风向多变
成为
从 19日的 04点(UTC)到 19日的 06点(UTC)
风速10节,风向北转东北

TAF: OAHR 180500Z 1806/1906 04008KT CAVOK BECMG 1806/1808 04018G30KT BECMG 1817/1819 04010KT BECMG 1820/1822 VRB03KT BECMG 1904/1906 02010KT

超过4000个机场的气象观测和天气预报(METAR&TAF报告)。

可查询的气象台以黄色和红色小点在地图上表示。

将鼠标移到小点上方,可查看气象台名称。

然后点击查看天气观测和预报。

如需切换地图:点击带黑十字的绿色按钮放大地图;点击带横线的绿色按钮缩小地图;或者点击绿色箭头查看邻近地区的地图。


METAR-TAF: